Time;durP1;ratioP1;P1;durP2;ratioP2;P2;SDS_P1;SDS_P2;PMS_P1;PMS_P2;Temp;Humidity;BMP_temperature;BMP_pressure;BME280_temperature;BME280_humidity;BME280_pressure;Samples;Min_cycle;Max_cycle;Signal;HPM_P1;HPM_P2
2021/05/23 00:00:37;;;;;;;1999.90;999.90;;;8.20;99.90;;;;;;5055406;28;20227;-41
2021/05/23 00:03:08;;;;;;;1999.90;999.90;;;8.20;99.90;;;;;;5055726;28;20237;-43
2021/05/23 00:05:39;;;;;;;1999.90;999.90;;;8.20;99.90;;;;;;5055554;28;20168;-42
2021/05/23 00:08:20;;;;;;;1999.90;999.90;;;8.10;99.90;;;;;;5055300;28;20169;-41
2021/05/23 00:11:07;;;;;;;1999.90;999.90;;;8.20;99.90;;;;;;5055088;28;20243;-41
2021/05/23 00:13:44;;;;;;;1999.90;999.90;;;8.10;99.90;;;;;;5055212;28;20165;-43
2021/05/23 00:16:19;;;;;;;1999.90;999.90;;;8.20;99.90;;;;;;5055183;28;20163;-43
2021/05/23 00:18:49;;;;;;;1999.90;999.90;;;8.20;99.90;;;;;;5055239;28;20168;-41
2021/05/23 00:21:18;;;;;;;1999.90;999.90;;;8.20;99.90;;;;;;5055097;28;20187;-42
2021/05/23 00:23:45;;;;;;;1999.90;999.90;;;8.20;99.90;;;;;;5055073;28;20169;-45
2021/05/23 00:26:13;;;;;;;1999.90;999.90;;;8.20;99.90;;;;;;5054952;28;20674;-41
2021/05/23 00:28:40;;;;;;;1999.90;999.90;;;8.20;99.90;;;;;;5054777;28;20176;-40
2021/05/23 00:31:08;;;;;;;1999.90;999.90;;;8.20;99.90;;;;;;5054889;28;20180;-43
2021/05/23 00:33:35;;;;;;;1999.90;999.90;;;8.20;99.90;;;;;;5054827;28;20177;-43
2021/05/23 00:36:03;;;;;;;1999.90;999.90;;;8.20;99.90;;;;;;5054964;28;20575;-41
2021/05/23 00:38:29;;;;;;;1999.90;999.90;;;8.10;99.90;;;;;;5054407;28;20168;-41
2021/05/23 00:40:56;;;;;;;1999.90;999.90;;;8.10;99.90;;;;;;5054705;28;20263;-41
2021/05/23 00:43:24;;;;;;;1999.90;999.90;;;8.10;99.90;;;;;;5054620;28;20168;-43
2021/05/23 00:45:52;;;;;;;1999.90;999.90;;;8.10;99.90;;;;;;5054451;28;20251;-41
2021/05/23 00:48:20;;;;;;;1999.90;999.90;;;8.10;99.90;;;;;;5054590;28;20219;-42
2021/05/23 00:50:48;;;;;;;1999.90;999.90;;;8.00;99.90;;;;;;5054453;28;20199;-43
2021/05/23 00:53:15;;;;;;;1999.90;999.90;;;8.00;99.90;;;;;;5054541;28;20196;-41
2021/05/23 00:55:42;;;;;;;1999.90;999.90;;;8.10;99.90;;;;;;5054409;28;20711;-44
2021/05/23 00:58:10;;;;;;;1999.90;999.90;;;8.10;99.90;;;;;;5054353;28;20169;-42
2021/05/23 01:00:44;;;;;;;1999.90;999.90;;;8.00;99.90;;;;;;5054314;28;20187;-43
2021/05/23 01:03:29;;;;;;;1999.90;999.90;;;8.10;99.90;;;;;;5054532;28;20658;-41
2021/05/23 01:05:55;;;;;;;1999.90;999.90;;;8.10;99.90;;;;;;5054297;28;20172;-41
2021/05/23 01:08:23;;;;;;;1999.90;999.90;;;8.10;99.90;;;;;;5054349;28;20172;-44
2021/05/23 01:10:55;;;;;;;1999.90;999.90;;;8.00;99.90;;;;;;5054151;28;20716;-40
2021/05/23 01:13:39;;;;;;;1999.90;999.90;;;7.80;99.90;;;;;;5054310;28;20204;-43
2021/05/23 01:16:14;;;;;;;1999.90;999.90;;;7.70;99.90;;;;;;5054362;28;20179;-42
2021/05/23 01:19:10;;;;;;;1999.90;999.90;;;7.70;99.90;;;;;;5054228;28;20160;-44
2021/05/23 01:21:40;;;;;;;1999.90;999.90;;;7.70;99.90;;;;;;5034796;28;20190;-41
2021/05/23 01:24:17;;;;;;;1999.90;999.90;;;7.70;99.90;;;;;;5054182;28;20188;-41
2021/05/23 01:26:52;;;;;;;1999.90;999.90;;;7.70;99.90;;;;;;5054041;28;20161;-41
2021/05/23 01:29:19;;;;;;;1999.90;999.90;;;7.80;99.90;;;;;;5053794;28;20273;-41
2021/05/23 01:31:46;;;;;;;1999.90;999.90;;;7.80;99.90;;;;;;5053909;28;20196;-41
2021/05/23 01:34:21;;;;;;;1999.90;999.90;;;7.90;99.90;;;;;;5053825;28;20170;-43
2021/05/23 01:36:50;;;;;;;1999.90;999.90;;;7.90;99.90;;;;;;5053839;28;20171;-40
2021/05/23 01:39:18;;;;;;;1999.90;999.90;;;7.80;99.90;;;;;;5053733;28;20172;-41
2021/05/23 01:41:47;;;;;;;1999.90;999.90;;;7.70;99.90;;;;;;5053814;28;20214;-44
2021/05/23 01:44:14;;;;;;;1999.90;999.90;;;7.70;99.90;;;;;;5053693;28;20214;-42
2021/05/23 01:46:42;;;;;;;1999.90;999.90;;;7.70;99.90;;;;;;5053444;28;20220;-41
2021/05/23 01:49:09;;;;;;;1999.90;999.90;;;7.80;99.90;;;;;;5053673;28;20654;-41
2021/05/23 01:51:36;;;;;;;1999.90;999.90;;;7.80;99.90;;;;;;5052891;28;20175;-41
2021/05/23 01:54:03;;;;;;;1999.90;999.90;;;7.70;99.90;;;;;;5053473;28;20200;-41
2021/05/23 01:56:30;;;;;;;1999.90;999.90;;;7.70;99.90;;;;;;5053369;28;20238;-45
2021/05/23 01:58:57;;;;;;;1999.90;999.90;;;7.70;99.90;;;;;;5053415;28;20219;-44
2021/05/23 02:01:27;;;;;;;1999.90;999.90;;;7.70;99.90;;;;;;5053413;28;20210;-41
2021/05/23 02:04:00;;;;;;;1999.90;999.90;;;7.60;99.90;;;;;;5053312;28;20256;-41
2021/05/23 02:06:27;;;;;;;1999.90;999.90;;;7.70;99.90;;;;;;5053277;28;20199;-41
2021/05/23 02:08:55;;;;;;;1999.90;999.90;;;7.80;99.90;;;;;;5053136;28;20192;-41
2021/05/23 02:11:21;;;;;;;1999.90;999.90;;;7.80;99.90;;;;;;5053461;28;20230;-41
2021/05/23 02:13:53;;;;;;;1999.90;999.90;;;7.80;99.90;;;;;;5053131;28;20203;-43
2021/05/23 02:16:20;;;;;;;1999.90;999.90;;;7.80;99.90;;;;;;5053106;28;20161;-44
2021/05/23 02:18:46;;;;;;;1999.90;999.90;;;7.80;99.90;;;;;;5052977;28;20183;-41
2021/05/23 02:21:14;;;;;;;1999.90;999.90;;;7.90;99.90;;;;;;5053066;28;20500;-41
2021/05/23 02:23:52;;;;;;;1999.90;999.90;;;7.90;99.90;;;;;;5053079;28;20508;-41
2021/05/23 02:26:19;;;;;;;1999.90;999.90;;;7.90;99.90;;;;;;5052932;28;20171;-40
2021/05/23 02:28:46;;;;;;;1999.90;999.90;;;7.80;99.90;;;;;;5052887;28;20643;-41
2021/05/23 02:31:13;;;;;;;1999.90;999.90;;;7.90;99.90;;;;;;5052898;28;20650;-41
2021/05/23 02:33:40;;;;;;;1999.90;999.90;;;7.80;99.90;;;;;;5053144;28;20251;-43
2021/05/23 02:36:07;;;;;;;1999.90;999.90;;;7.70;99.90;;;;;;5052893;28;20531;-43
2021/05/23 02:38:34;;;;;;;1999.90;999.90;;;7.70;99.90;;;;;;5052852;28;20259;-42
2021/05/23 02:41:01;;;;;;;1999.90;999.90;;;7.70;99.90;;;;;;5052740;28;20180;-40
2021/05/23 02:43:29;;;;;;;1999.90;999.90;;;7.70;99.90;;;;;;5052653;28;20206;-44
2021/05/23 02:45:56;;;;;;;1999.90;999.90;;;7.70;99.90;;;;;;5052484;28;20236;-47
2021/05/23 02:48:22;;;;;;;1999.90;999.90;;;7.60;99.90;;;;;;5052732;28;20203;-47
2021/05/23 02:50:52;;;;;;;1999.90;999.90;;;7.50;99.90;;;;;;5052689;28;20250;-46
2021/05/23 02:53:20;;;;;;;1999.90;999.90;;;7.50;99.90;;;;;;5052609;28;20639;-47
2021/05/23 02:55:48;;;;;;;1999.90;999.90;;;7.50;99.90;;;;;;5052629;28;20180;-42
2021/05/23 02:58:16;;;;;;;1999.90;999.90;;;7.50;99.90;;;;;;5053030;28;20268;-42
2021/05/23 03:00:44;;;;;;;1999.90;999.90;;;7.50;99.90;;;;;;5052805;28;20256;-41
2021/05/23 03:03:12;;;;;;;1999.90;999.90;;;7.40;99.90;;;;;;5056608;28;20160;-41
2021/05/23 03:05:40;;;;;;;1999.90;999.90;;;7.40;99.90;;;;;;5056678;28;20177;-44
2021/05/23 03:08:07;;;;;;;1999.90;999.90;;;7.40;99.90;;;;;;5056893;28;20593;-44
2021/05/23 03:10:43;;;;;;;1999.90;999.90;;;7.40;99.90;;;;;;5056460;28;20207;-45
2021/05/23 03:13:11;;;;;;;1999.90;999.90;;;7.50;99.90;;;;;;5056556;28;20183;-44
2021/05/23 03:15:39;;;;;;;1999.90;999.90;;;7.60;99.90;;;;;;5056437;28;20258;-43
2021/05/23 03:18:07;;;;;;;1999.90;999.90;;;7.50;99.90;;;;;;5056400;28;20639;-43
2021/05/23 03:20:35;;;;;;;1999.90;999.90;;;7.60;99.90;;;;;;5056405;28;20627;-43
2021/05/23 03:23:02;;;;;;;1999.90;999.90;;;7.60;99.90;;;;;;5056251;28;20188;-44
2021/05/23 03:25:30;;;;;;;1999.90;999.90;;;7.60;99.90;;;;;;5056279;28;20176;-45
2021/05/23 03:27:58;;;;;;;1999.90;999.90;;;7.60;99.90;;;;;;5056184;28;20181;-43
2021/05/23 03:30:29;;;;;;;1999.90;999.90;;;7.60;99.90;;;;;;5056090;28;20324;-41
2021/05/23 03:32:56;;;;;;;1999.90;999.90;;;7.60;99.90;;;;;;5056271;28;20200;-42
2021/05/23 03:35:23;;;;;;;1999.90;999.90;;;7.60;99.90;;;;;;5056101;28;20168;-43
2021/05/23 03:37:50;;;;;;;1999.90;999.90;;;7.60;99.90;;;;;;5056111;28;20179;-41
2021/05/23 03:40:18;;;;;;;1999.90;999.90;;;7.60;99.90;;;;;;5056106;28;20172;-41
2021/05/23 03:42:46;;;;;;;1999.90;999.90;;;7.50;99.90;;;;;;5056064;28;20176;-44
2021/05/23 03:45:15;;;;;;;1999.90;999.90;;;7.40;99.90;;;;;;5055611;28;20196;-43
2021/05/23 03:47:43;;;;;;;1999.90;999.90;;;7.50;99.90;;;;;;5055919;28;20174;-41
2021/05/23 03:50:11;;;;;;;1999.90;999.90;;;7.40;99.90;;;;;;5055771;28;20207;-41
2021/05/23 03:52:38;;;;;;;1999.90;999.90;;;7.40;99.90;;;;;;5055781;28;20697;-43
2021/05/23 03:55:07;;;;;;;1999.90;999.90;;;7.40;99.90;;;;;;5055623;28;20169;-42
2021/05/23 03:57:35;;;;;;;1999.90;999.90;;;7.40;99.90;;;;;;5055630;28;20179;-41
2021/05/23 04:00:03;;;;;;;1999.90;999.90;;;7.30;99.90;;;;;;5055654;28;20166;-41
2021/05/23 04:02:30;;;;;;;1999.90;999.90;;;7.30;99.90;;;;;;5055570;28;20173;-42
2021/05/23 04:04:57;;;;;;;1999.90;999.90;;;7.50;99.90;;;;;;5055470;28;20249;-44
2021/05/23 04:07:26;;;;;;;1999.90;999.90;;;7.50;99.90;;;;;;5055570;28;20653;-44
2021/05/23 04:09:54;;;;;;;1999.90;999.90;;;7.50;99.90;;;;;;5055254;28;20215;-43
2021/05/23 04:12:35;;;;;;;1999.90;999.90;;;7.60;99.90;;;;;;5055246;28;20178;-41
2021/05/23 04:15:02;;;;;;;1999.90;999.90;;;7.60;99.90;;;;;;5054948;28;20207;-42
2021/05/23 04:17:29;;;;;;;1999.90;999.90;;;7.60;99.90;;;;;;5055319;28;20169;-46
2021/05/23 04:19:56;;;;;;;1999.90;999.90;;;7.60;99.90;;;;;;5055202;28;20176;-41
2021/05/23 04:22:24;;;;;;;1999.90;999.90;;;7.60;99.90;;;;;;5055249;28;20164;-42
2021/05/23 04:24:51;;;;;;;1999.90;999.90;;;7.40;99.90;;;;;;5055315;28;20176;-45
2021/05/23 04:27:18;;;;;;;1999.90;999.90;;;7.40;99.90;;;;;;5055193;28;20247;-44
2021/05/23 04:29:45;;;;;;;1999.90;999.90;;;7.40;99.90;;;;;;5055026;28;20227;-44
2021/05/23 04:32:12;;;;;;;1999.90;999.90;;;7.50;99.90;;;;;;5054934;28;20587;-43
2021/05/23 04:34:39;;;;;;;1999.90;999.90;;;7.50;99.90;;;;;;5055033;28;20184;-43
2021/05/23 04:37:06;;;;;;;1999.90;999.90;;;7.40;99.90;;;;;;5054929;28;20169;-42
2021/05/23 04:39:34;;;;;;;1999.90;999.90;;;7.40;99.90;;;;;;5054914;28;20178;-42
2021/05/23 04:42:01;;;;;;;1999.90;999.90;;;7.30;99.90;;;;;;5054794;28;20180;-45
2021/05/23 04:44:28;;;;;;;1999.90;999.90;;;7.30;99.90;;;;;;5054785;28;20159;-44
2021/05/23 04:46:55;;;;;;;1999.90;999.90;;;7.30;99.90;;;;;;5054612;28;20227;-43
2021/05/23 04:49:21;;;;;;;1999.90;999.90;;;7.20;99.90;;;;;;5054727;28;20192;-43
2021/05/23 04:51:49;;;;;;;1999.90;999.90;;;7.20;99.90;;;;;;5054705;28;20227;-43
2021/05/23 04:54:16;;;;;;;1999.90;999.90;;;7.20;99.90;;;;;;5054599;28;20268;-42
2021/05/23 04:56:43;;;;;;;1999.90;999.90;;;7.20;99.90;;;;;;5054557;28;20620;-43
2021/05/23 04:59:10;;;;;;;1999.90;999.90;;;7.30;99.90;;;;;;5054554;28;20570;-44
2021/05/23 05:01:37;;;;;;;1999.90;999.90;;;7.30;99.90;;;;;;5054421;28;20175;-41
2021/05/23 05:04:04;;;;;;;1999.90;999.90;;;7.40;99.90;;;;;;5054409;28;20218;-41
2021/05/23 05:06:31;;;;;;;1999.90;999.90;;;7.40;99.90;;;;;;5054423;28;20174;-44
2021/05/23 05:08:58;;;;;;;1999.90;999.90;;;7.30;99.90;;;;;;5054203;28;20219;-41
2021/05/23 05:11:25;;;;;;;1999.90;999.90;;;7.30;99.90;;;;;;5054415;28;20170;-41
2021/05/23 05:13:52;;;;;;;1999.90;999.90;;;7.30;99.90;;;;;;5054281;28;20254;-41
2021/05/23 05:16:18;;;;;;;1999.90;999.90;;;7.40;99.90;;;;;;5054254;28;20171;-43
2021/05/23 05:18:45;;;;;;;1999.90;999.90;;;7.40;99.90;;;;;;5054209;28;20179;-44
2021/05/23 05:21:12;;;;;;;1999.90;999.90;;;7.40;99.90;;;;;;5054115;28;20226;-43
2021/05/23 05:23:39;;;;;;;1999.90;999.90;;;7.40;99.90;;;;;;5054102;28;20179;-42
2021/05/23 05:26:06;;;;;;;1999.90;999.90;;;7.30;99.90;;;;;;5053981;28;20213;-45
2021/05/23 05:28:32;;;;;;;1999.90;999.90;;;7.30;99.90;;;;;;5054027;28;20176;-41
2021/05/23 05:30:59;;;;;;;1999.90;999.90;;;7.20;99.90;;;;;;5053889;28;20217;-40
2021/05/23 05:33:26;;;;;;;1999.90;999.90;;;7.30;99.90;;;;;;5054019;28;20176;-42
2021/05/23 05:35:53;;;;;;;1999.90;999.90;;;7.30;99.90;;;;;;5054021;28;20568;-44
2021/05/23 05:38:20;;;;;;;1999.90;999.90;;;7.30;99.90;;;;;;5053807;28;20169;-46
2021/05/23 05:40:47;;;;;;;1999.90;999.90;;;7.20;99.90;;;;;;5053738;28;20180;-43
2021/05/23 05:43:13;;;;;;;1999.90;999.90;;;7.20;99.90;;;;;;5053747;28;20172;-44
2021/05/23 05:45:40;;;;;;;1999.90;999.90;;;7.20;99.90;;;;;;5053449;28;20267;-40
2021/05/23 05:48:07;;;;;;;1999.90;999.90;;;7.20;99.90;;;;;;5053614;28;20631;-43
2021/05/23 05:50:34;;;;;;;1999.90;999.90;;;7.20;99.90;;;;;;5052187;28;20246;-42
2021/05/23 05:53:01;;;;;;;1999.90;999.90;;;7.20;99.90;;;;;;5053529;28;20169;-42
2021/05/23 05:55:28;;;;;;;1999.90;999.90;;;7.30;99.90;;;;;;5053576;28;20696;-44
2021/05/23 05:57:55;;;;;;;1999.90;999.90;;;7.30;99.90;;;;;;5053540;28;20176;-44
2021/05/23 06:00:22;;;;;;;1999.90;999.90;;;7.30;99.90;;;;;;5053419;28;20220;-41
2021/05/23 06:02:49;;;;;;;1999.90;999.90;;;7.40;99.90;;;;;;5053240;28;20177;-42
2021/05/23 06:05:16;;;;;;;1999.90;999.90;;;7.40;99.90;;;;;;5053275;28;20246;-41
2021/05/23 06:07:46;;;;;;;1999.90;999.90;;;7.40;99.90;;;;;;5053136;28;20172;-44
2021/05/23 06:10:15;;;;;;;1999.90;999.90;;;7.40;99.90;;;;;;5053344;28;20207;-45
2021/05/23 06:12:42;;;;;;;1999.90;999.90;;;7.60;99.90;;;;;;5053016;28;20271;-41
2021/05/23 06:15:10;;;;;;;1999.90;999.90;;;7.60;99.90;;;;;;5053078;28;20238;-42
2021/05/23 06:17:37;;;;;;;1999.90;999.90;;;7.70;99.90;;;;;;5053067;28;20221;-42
2021/05/23 06:20:05;;;;;;;1999.90;999.90;;;7.80;99.90;;;;;;5052943;28;20189;-43
2021/05/23 06:22:32;;;;;;;1999.90;999.90;;;7.90;99.90;;;;;;5053011;28;20172;-42
2021/05/23 06:24:59;;;;;;;1999.90;999.90;;;8.00;99.90;;;;;;5053055;28;20174;-44
2021/05/23 06:27:26;;;;;;;1999.90;999.90;;;8.10;99.90;;;;;;5053002;28;20169;-46
2021/05/23 06:29:53;;;;;;;1999.90;999.90;;;8.20;99.90;;;;;;5052696;28;20200;-41
2021/05/23 06:32:20;;;;;;;1999.90;999.90;;;8.30;99.90;;;;;;5052670;28;20255;-43
2021/05/23 06:34:47;;;;;;;1999.90;999.90;;;8.40;99.90;;;;;;5052645;28;20176;-41
2021/05/23 06:37:14;;;;;;;1999.90;999.90;;;8.40;99.90;;;;;;5052195;28;20192;-41
2021/05/23 06:39:40;;;;;;;1999.90;999.90;;;8.50;99.90;;;;;;5052575;28;20180;-42
2021/05/23 06:42:07;;;;;;;1999.90;999.90;;;8.60;99.90;;;;;;5052553;28;20480;-41
2021/05/23 06:44:34;;;;;;;1999.90;999.90;;;8.70;99.90;;;;;;5052552;28;20647;-43
2021/05/23 06:47:02;;;;;;;1999.90;999.90;;;8.80;99.90;;;;;;5052422;28;20225;-43
2021/05/23 06:49:29;;;;;;;1999.90;999.90;;;8.90;99.90;;;;;;5052530;28;20548;-47
2021/05/23 06:51:56;;;;;;;1999.90;999.90;;;9.00;99.90;;;;;;5052477;28;20171;-47
2021/05/23 06:54:23;;;;;;;1999.90;999.90;;;9.10;99.90;;;;;;5052431;28;20164;-47
2021/05/23 06:56:50;;;;;;;1999.90;999.90;;;9.30;99.90;;;;;;5052545;28;20199;-43
2021/05/23 06:59:17;;;;;;;1999.90;999.90;;;9.40;99.90;;;;;;5052734;28;20202;-46
2021/05/23 07:01:44;;;;;;;1999.90;999.90;;;9.50;99.90;;;;;;5052430;28;20211;-44
2021/05/23 07:04:11;;;;;;;1999.90;999.90;;;9.60;99.90;;;;;;5052462;28;20180;-42
2021/05/23 07:06:38;;;;;;;1999.90;999.90;;;9.80;99.90;;;;;;5052439;28;20180;-42
2021/05/23 07:09:05;;;;;;;1999.90;999.90;;;9.90;99.90;;;;;;5052356;28;20644;-48
2021/05/23 07:11:32;;;;;;;1999.90;999.90;;;10.00;99.90;;;;;;5052591;28;20260;-44
2021/05/23 07:13:58;;;;;;;1999.90;999.90;;;10.20;99.90;;;;;;5051038;28;20177;-47
2021/05/23 07:16:25;;;;;;;1999.90;999.90;;;10.30;99.90;;;;;;5052379;28;20173;-46
2021/05/23 07:18:52;;;;;;;1999.90;999.90;;;10.40;99.90;;;;;;5052271;28;20197;-45
2021/05/23 07:21:19;;;;;;;1999.90;999.90;;;10.50;99.90;;;;;;5052241;28;20632;-48
2021/05/23 07:23:46;;;;;;;1999.90;999.90;;;10.70;99.90;;;;;;5052376;28;20169;-45
2021/05/23 07:26:13;;;;;;;1999.90;999.90;;;10.90;99.90;;;;;;5052321;28;20639;-46
2021/05/23 07:28:40;;;;;;;1999.90;999.90;;;11.00;99.90;;;;;;5052306;28;20176;-48
2021/05/23 07:31:07;;;;;;;1999.90;999.90;;;11.10;99.90;;;;;;5052253;28;20235;-44
2021/05/23 07:33:33;;;;;;;1999.90;999.90;;;11.30;99.90;;;;;;5052315;28;20165;-44
2021/05/23 07:36:01;;;;;;;1999.90;999.90;;;11.40;99.90;;;;;;5052247;28;20180;-48
2021/05/23 07:38:28;;;;;;;1999.90;999.90;;;11.50;99.90;;;;;;5052075;28;20559;-47
2021/05/23 07:40:55;;;;;;;1999.90;999.90;;;11.60;99.90;;;;;;5052047;28;20598;-46
2021/05/23 07:43:22;;;;;;;1999.90;999.90;;;11.70;99.90;;;;;;5052000;28;20177;-45
2021/05/23 07:45:49;;;;;;;1999.90;999.90;;;11.80;99.90;;;;;;5051784;28;20236;-43
2021/05/23 07:48:16;;;;;;;1999.90;999.90;;;11.90;99.90;;;;;;5052551;28;20183;-46
2021/05/23 07:50:43;;;;;;;1999.90;999.90;;;12.10;99.90;;;;;;5055578;28;20193;-47
2021/05/23 07:53:09;;;;;;;1999.90;999.90;;;12.20;99.90;;;;;;5055664;28;20184;-45
2021/05/23 07:55:36;;;;;;;1999.90;999.90;;;12.40;99.90;;;;;;5055775;28;20541;-46
2021/05/23 07:58:03;;;;;;;1999.90;999.90;;;12.50;99.90;;;;;;5055576;28;20169;-43
2021/05/23 08:00:30;;;;;;;1999.90;999.90;;;12.70;99.90;;;;;;5055462;28;20307;-43
2021/05/23 08:02:57;;;;;;;1999.90;999.90;;;12.90;99.50;;;;;;5055459;28;20176;-43
2021/05/23 08:05:24;;;;;;;1999.90;999.90;;;13.00;98.90;;;;;;5055448;28;20644;-45
2021/05/23 08:07:51;;;;;;;1999.90;999.90;;;13.20;99.10;;;;;;5055349;28;20180;-45
2021/05/23 08:10:18;;;;;;;1999.90;999.90;;;13.40;98.80;;;;;;5055186;28;20205;-44
2021/05/23 08:12:45;;;;;;;1999.90;999.90;;;13.60;97.20;;;;;;5055345;28;20207;-43
2021/05/23 08:15:15;;;;;;;1999.90;999.90;;;13.70;97.70;;;;;;5055270;28;20165;-55
2021/05/23 08:17:45;;;;;;;1999.90;999.90;;;13.90;96.40;;;;;;5055486;28;20634;-46
2021/05/23 08:20:13;;;;;;;1999.90;999.90;;;14.10;96.90;;;;;;5055237;28;20207;-46
2021/05/23 08:22:40;;;;;;;1999.90;999.90;;;14.20;97.00;;;;;;5055321;28;20580;-46
2021/05/23 08:25:08;;;;;;;1999.90;999.90;;;14.40;97.70;;;;;;5055274;28;20169;-51
2021/05/23 08:27:35;;;;;;;1999.90;999.90;;;14.50;98.20;;;;;;5055196;28;20169;-45
2021/05/23 08:30:02;;;;;;;1999.90;999.90;;;14.70;97.30;;;;;;5055011;28;20219;-44
2021/05/23 08:32:29;;;;;;;1999.90;999.90;;;14.80;97.50;;;;;;5055111;28;20214;-45
2021/05/23 08:34:56;;;;;;;1999.90;999.90;;;15.00;98.00;;;;;;5055027;28;20173;-42
2021/05/23 08:37:22;;;;;;;1999.90;999.90;;;15.10;97.80;;;;;;5054923;28;20256;-45
2021/05/23 08:39:49;;;;;;;1999.90;999.90;;;15.20;96.90;;;;;;5054950;28;20165;-47
2021/05/23 08:42:16;;;;;;;1999.90;999.90;;;15.40;96.20;;;;;;5054823;28;20211;-43
2021/05/23 08:44:43;;;;;;;1999.90;999.90;;;15.70;94.70;;;;;;5054942;28;20173;-45
2021/05/23 08:47:11;;;;;;;1999.90;999.90;;;15.80;94.80;;;;;;5054653;28;20213;-43
2021/05/23 08:49:37;;;;;;;1999.90;999.90;;;15.90;94.60;;;;;;5055254;28;20545;-43
2021/05/23 08:52:04;;;;;;;1999.90;999.90;;;16.10;94.10;;;;;;5054686;28;20264;-47
2021/05/23 08:54:33;;;;;;;1999.90;999.90;;;16.30;93.40;;;;;;5054623;28;20223;-43
2021/05/23 08:57:01;;;;;;;1999.90;999.90;;;16.50;93.30;;;;;;5054528;28;20246;-43
2021/05/23 08:59:28;;;;;;;1999.90;999.90;;;16.70;94.00;;;;;;5054242;28;20165;-43
2021/05/23 09:02:05;;;;;;;1999.90;999.90;;;16.90;91.90;;;;;;5054536;28;20165;-44
2021/05/23 09:04:32;;;;;;;1999.90;999.90;;;17.10;91.80;;;;;;5054522;28;20157;-45
2021/05/23 09:07:04;;;;;;;1999.90;999.90;;;17.30;91.20;;;;;;5054220;28;20609;-47
2021/05/23 09:09:48;;;;;;;1999.90;999.90;;;17.60;90.10;;;;;;5054346;28;20272;-44
2021/05/23 09:12:18;;;;;;;1999.90;999.90;;;17.70;86.00;;;;;;5054543;28;20191;-43
2021/05/23 09:14:50;;;;;;;1999.90;999.90;;;17.90;83.70;;;;;;5054341;28;20169;-45
2021/05/23 09:17:20;;;;;;;1999.90;999.90;;;18.00;82.50;;;;;;5054261;28;20279;-45
2021/05/23 09:19:48;;;;;;;1999.90;999.90;;;18.20;82.40;;;;;;5054268;28;20252;-44
2021/05/23 09:22:18;;;;;;;1999.90;999.90;;;18.40;78.20;;;;;;5054167;28;20179;-47
2021/05/23 09:24:54;;;;;;;1999.90;999.90;;;18.60;77.10;;;;;;5054232;28;20177;-43
2021/05/23 09:27:23;;;;;;;1999.90;999.90;;;18.80;73.90;;;;;;5054294;28;20169;-45
2021/05/23 09:30:13;;;;;;;1999.90;999.90;;;18.90;67.20;;;;;;5054022;28;20675;-44
2021/05/23 09:32:44;;;;;;;1999.90;999.90;;;19.10;68.50;;;;;;5053887;28;20161;-45
2021/05/23 09:35:11;;;;;;;1999.90;999.90;;;19.30;60.30;;;;;;5053767;28;20161;-43
2021/05/23 09:37:39;;;;;;;1999.90;999.90;;;19.50;58.20;;;;;;5053844;28;20180;-43
2021/05/23 09:40:24;;;;;;;1999.90;999.90;;;19.70;58.20;;;;;;5053736;28;20169;-45
2021/05/23 09:42:54;;;;;;;1999.90;999.90;;;19.90;58.60;;;;;;5053708;28;20655;-44
2021/05/23 09:45:23;;;;;;;1999.90;999.90;;;20.10;57.30;;;;;;5053381;28;20157;-45
2021/05/23 09:47:58;;;;;;;1999.90;999.90;;;20.20;58.30;;;;;;5053618;28;20157;-45
2021/05/23 09:50:40;;;;;;;1999.90;999.90;;;20.30;61.00;;;;;;5053454;28;20610;-53
2021/05/23 09:53:27;;;;;;;1999.90;999.90;;;20.40;62.10;;;;;;5053409;28;20615;-43
2021/05/23 09:56:00;;;;;;;1999.90;999.90;;;20.50;61.20;;;;;;5053416;28;20226;-49
2021/05/23 09:58:28;;;;;;;1999.90;999.90;;;20.60;64.80;;;;;;5053270;28;20307;-44
2021/05/23 10:00:56;;;;;;;1999.90;999.90;;;20.60;64.20;;;;;;5053636;28;20169;-44
2021/05/23 10:03:34;;;;;;;1999.90;999.90;;;20.80;64.50;;;;;;5053328;28;20208;-48
2021/05/23 10:06:01;;;;;;;1999.90;999.90;;;21.10;62.70;;;;;;5053608;28;20524;-49
2021/05/23 10:08:29;;;;;;;1999.90;999.90;;;21.20;60.40;;;;;;5053147;28;20200;-51
2021/05/23 10:10:57;;;;;;;1999.90;999.90;;;21.40;56.10;;;;;;5052240;28;20193;-51
2021/05/23 10:13:25;;;;;;;1999.90;999.90;;;21.70;54.70;;;;;;5053128;28;20178;-45
2021/05/23 10:15:52;;;;;;;1999.90;999.90;;;21.70;53.50;;;;;;5052869;28;20177;-44
2021/05/23 10:18:27;;;;;;;1999.90;999.90;;;21.70;55.20;;;;;;5053054;28;20172;-52
2021/05/23 10:20:58;;;;;;;1999.90;999.90;;;21.80;54.80;;;;;;5052979;28;20195;-46
2021/05/23 10:23:48;;;;;;;1999.90;999.90;;;21.90;54.70;;;;;;5053045;28;20577;-44
2021/05/23 10:26:21;;;;;;;1999.90;999.90;;;22.10;50.30;;;;;;5053032;28;20211;-44
2021/05/23 10:28:50;;;;;;;1999.90;999.90;;;22.10;51.70;;;;;;5052901;28;20165;-43
2021/05/23 10:31:32;;;;;;;1999.90;999.90;;;22.10;53.50;;;;;;5053082;28;20173;-44
2021/05/23 10:33:58;;;;;;;1999.90;999.90;;;22.00;54.10;;;;;;5052649;28;20161;-45
2021/05/23 10:36:30;;;;;;;1999.90;999.90;;;22.00;52.90;;;;;;5052665;28;20177;-43
2021/05/23 10:38:59;;;;;;;1999.90;999.90;;;21.90;52.70;;;;;;5052711;28;20169;-46
2021/05/23 10:41:26;;;;;;;1999.90;999.90;;;21.90;51.90;;;;;;5052527;28;20547;-45
2021/05/23 10:44:01;;;;;;;1999.90;999.90;;;22.00;52.50;;;;;;5052780;28;20655;-46
2021/05/23 10:46:30;;;;;;;1999.90;999.90;;;22.10;52.40;;;;;;5052198;28;20228;-44
2021/05/23 10:49:01;;;;;;;1999.90;999.90;;;22.20;51.70;;;;;;5052550;28;20185;-45
2021/05/23 10:51:29;;;;;;;1999.90;999.90;;;22.20;51.90;;;;;;5052514;28;20272;-45
2021/05/23 10:53:56;;;;;;;1999.90;999.90;;;22.40;52.80;;;;;;5052594;28;20586;-46
2021/05/23 10:56:31;;;;;;;1999.90;999.90;;;22.60;52.30;;;;;;5052793;28;20173;-52
2021/05/23 10:59:04;;;;;;;1999.90;999.90;;;22.70;51.90;;;;;;5052539;28;20515;-45
2021/05/23 11:01:52;;;;;;;1999.90;999.90;;;22.90;49.40;;;;;;5052306;28;20173;-44
2021/05/23 11:04:24;;;;;;;1999.90;999.90;;;23.00;48.30;;;;;;5052437;28;20157;-46
2021/05/23 11:06:51;;;;;;;1999.90;999.90;;;23.30;48.00;;;;;;5052172;28;20191;-51
2021/05/23 11:09:20;;;;;;;1999.90;999.90;;;23.30;46.90;;;;;;5052056;28;20223;-45
2021/05/23 11:11:48;;;;;;;1999.90;999.90;;;23.50;46.40;;;;;;5052259;28;20180;-49
2021/05/23 11:14:24;;;;;;;1999.90;999.90;;;23.60;45.80;;;;;;5052222;28;20583;-44
2021/05/23 11:16:58;;;;;;;1999.90;999.90;;;23.80;45.80;;;;;;5052520;28;20157;-45
2021/05/23 11:19:34;;;;;;;1999.90;999.90;;;23.80;47.10;;;;;;5052492;28;20235;-45
2021/05/23 11:22:01;;;;;;;1999.90;999.90;;;23.90;45.40;;;;;;5052557;28;20669;-47
2021/05/23 11:24:33;;;;;;;1999.90;999.90;;;24.00;44.50;;;;;;5056344;28;20523;-46
2021/05/23 11:27:17;;;;;;;1999.90;999.90;;;24.10;44.70;;;;;;5056241;28;20179;-50
2021/05/23 11:29:49;;;;;;;1999.90;999.90;;;24.10;44.30;;;;;;5056207;28;20201;-45
2021/05/23 11:32:17;;;;;;;1999.90;999.90;;;24.30;44.40;;;;;;5056404;28;20255;-50
2021/05/23 11:34:45;;;;;;;1999.90;999.90;;;24.50;44.70;;;;;;5056163;28;20174;-45
2021/05/23 11:37:12;;;;;;;1999.90;999.90;;;24.60;45.10;;;;;;5056001;28;20256;-49
2021/05/23 11:39:39;;;;;;;1999.90;999.90;;;24.60;45.20;;;;;;5056094;28;20535;-45
2021/05/23 11:42:06;;;;;;;1999.90;999.90;;;24.60;45.80;;;;;;5055843;28;20188;-47
2021/05/23 11:44:37;;;;;;;1999.90;999.90;;;24.60;47.30;;;;;;5055663;28;20514;-46
2021/05/23 11:47:05;;;;;;;1999.90;999.90;;;24.70;46.00;;;;;;5055592;28;20216;-46
2021/05/23 11:49:32;;;;;;;1999.90;999.90;;;24.80;47.10;;;;;;5055635;28;20223;-47
2021/05/23 11:52:01;;;;;;;1999.90;999.90;;;24.90;47.50;;;;;;5055655;28;20173;-48
2021/05/23 11:54:28;;;;;;;1999.90;999.90;;;24.80;46.60;;;;;;5055725;28;20248;-44
2021/05/23 11:56:55;;;;;;;1999.90;999.90;;;24.80;46.60;;;;;;5055835;28;20201;-46
2021/05/23 11:59:22;;;;;;;1999.90;999.90;;;24.80;45.80;;;;;;5055771;28;20173;-52
2021/05/23 12:01:54;;;;;;;1999.90;999.90;;;24.90;46.40;;;;;;5055552;28;20183;-46
2021/05/23 12:04:21;;;;;;;1999.90;999.90;;;24.80;45.90;;;;;;5055625;28;20157;-45
2021/05/23 12:06:55;;;;;;;1999.90;999.90;;;25.00;44.60;;;;;;5055313;28;20177;-48
2021/05/23 12:09:36;;;;;;;1999.90;999.90;;;25.00;43.80;;;;;;5054976;28;20193;-47
2021/05/23 12:12:05;;;;;;;1999.90;999.90;;;25.00;44.40;;;;;;5055174;28;20701;-45